createdAt,value
2023-05-16T00:00:18.341Z,45.90
2023-05-16T00:02:45.317Z,45.90
2023-05-16T00:05:12.271Z,46.10
2023-05-16T00:07:42.782Z,46.10
2023-05-16T00:10:10.126Z,46.10
2023-05-16T00:12:36.908Z,46.00
2023-05-16T00:15:04.020Z,46.00
2023-05-16T00:17:30.765Z,46.10
2023-05-16T00:19:58.552Z,46.30
2023-05-16T00:22:25.402Z,46.50
2023-05-16T00:24:53.706Z,46.50
2023-05-16T00:27:20.348Z,47.00
2023-05-16T00:29:47.000Z,47.50
2023-05-16T00:32:13.829Z,47.70
2023-05-16T00:34:40.558Z,47.10
2023-05-16T00:37:07.246Z,47.10
2023-05-16T00:39:33.881Z,47.10
2023-05-16T00:42:02.039Z,47.60
2023-05-16T00:44:28.765Z,47.50
2023-05-16T00:46:55.420Z,47.90
2023-05-16T00:49:22.214Z,48.00
2023-05-16T00:51:48.887Z,48.40
2023-05-16T00:54:15.622Z,48.40
2023-05-16T00:56:42.330Z,49.10
2023-05-16T00:59:10.561Z,49.00
2023-05-16T01:01:38.199Z,48.90
2023-05-16T01:04:05.885Z,49.40
2023-05-16T01:06:33.307Z,49.00
2023-05-16T01:09:00.236Z,49.50
2023-05-16T01:11:33.749Z,49.30
2023-05-16T01:14:12.164Z,49.60
2023-05-16T01:16:46.298Z,49.40
2023-05-16T01:19:20.842Z,49.50
2023-05-16T01:21:49.776Z,49.50
2023-05-16T01:24:27.226Z,49.70
2023-05-16T01:26:57.085Z,49.60
2023-05-16T01:29:23.912Z,50.00
2023-05-16T01:31:50.662Z,49.50
2023-05-16T01:34:17.331Z,49.50
2023-05-16T01:36:52.771Z,49.20
2023-05-16T01:39:27.048Z,49.40
2023-05-16T01:42:03.641Z,49.70
2023-05-16T01:44:36.428Z,49.70
2023-05-16T01:47:09.575Z,50.20
2023-05-16T01:49:42.392Z,50.00
2023-05-16T01:52:13.299Z,50.30
2023-05-16T01:54:43.829Z,50.30
2023-05-16T01:57:13.779Z,49.80
2023-05-16T01:59:41.517Z,50.30
2023-05-16T02:02:08.194Z,50.40
2023-05-16T02:04:34.846Z,50.40
2023-05-16T02:07:01.897Z,50.20
2023-05-16T02:09:28.573Z,50.20
2023-05-16T02:11:55.286Z,50.40
2023-05-16T02:14:23.350Z,50.20
2023-05-16T02:16:50.014Z,50.50
2023-05-16T02:19:16.809Z,50.30
2023-05-16T02:21:43.504Z,50.30
2023-05-16T02:24:10.192Z,50.40
2023-05-16T02:26:36.836Z,50.70
2023-05-16T02:29:03.589Z,50.70
2023-05-16T02:31:33.417Z,50.60
2023-05-16T02:34:00.857Z,50.80
2023-05-16T02:36:27.860Z,50.20
2023-05-16T02:38:54.607Z,50.60
2023-05-16T02:41:21.264Z,50.80
2023-05-16T02:43:47.987Z,50.50
2023-05-16T02:46:25.922Z,50.40
2023-05-16T02:48:54.824Z,50.30
2023-05-16T02:51:23.189Z,50.90
2023-05-16T02:53:50.452Z,50.50
2023-05-16T02:56:17.503Z,50.10
2023-05-16T02:58:46.770Z,50.50
2023-05-16T03:01:14.092Z,50.60
2023-05-16T03:03:40.896Z,50.30
2023-05-16T03:06:09.135Z,50.40
2023-05-16T03:08:35.826Z,50.30
2023-05-16T03:11:02.553Z,50.30
2023-05-16T03:13:29.210Z,50.50
2023-05-16T03:15:56.513Z,49.80
2023-05-16T03:18:23.287Z,49.70
2023-05-16T03:20:50.005Z,49.80
2023-05-16T03:23:18.086Z,49.90
2023-05-16T03:25:44.860Z,49.80
2023-05-16T03:28:12.832Z,49.90
2023-05-16T03:30:41.326Z,50.10
2023-05-16T03:33:08.100Z,50.40
2023-05-16T03:35:35.499Z,50.40
2023-05-16T03:38:02.290Z,50.30
2023-05-16T03:40:30.527Z,50.70
2023-05-16T03:42:57.246Z,50.20
2023-05-16T03:45:24.123Z,50.60
2023-05-16T03:47:50.975Z,50.60
2023-05-16T03:50:17.914Z,50.10
2023-05-16T03:52:44.830Z,50.00
2023-05-16T03:55:11.486Z,50.20
2023-05-16T03:57:39.507Z,50.20
2023-05-16T04:00:07.446Z,50.40
2023-05-16T04:02:34.267Z,50.40
2023-05-16T04:05:00.954Z,50.30
2023-05-16T04:07:27.605Z,50.30
2023-05-16T04:09:54.720Z,50.10
2023-05-16T04:12:21.530Z,50.20
2023-05-16T04:14:49.538Z,49.70
2023-05-16T04:17:16.263Z,50.00
2023-05-16T04:19:43.047Z,49.80
2023-05-16T04:22:09.712Z,49.70
2023-05-16T04:24:36.356Z,50.20
2023-05-16T04:27:03.084Z,50.70
2023-05-16T04:29:29.725Z,51.00
2023-05-16T04:31:58.101Z,51.40
2023-05-16T04:34:24.876Z,52.00
2023-05-16T04:36:51.528Z,52.30
2023-05-16T04:39:18.176Z,52.30
2023-05-16T04:41:44.840Z,52.70
2023-05-16T04:44:11.599Z,52.60
2023-05-16T04:46:38.495Z,52.50
2023-05-16T04:49:06.538Z,52.40
2023-05-16T04:51:33.341Z,51.90
2023-05-16T04:54:00.054Z,52.50
2023-05-16T04:56:26.709Z,52.40
2023-05-16T04:58:53.470Z,52.20
2023-05-16T05:01:20.351Z,52.00
2023-05-16T05:03:48.297Z,52.00
2023-05-16T05:06:16.538Z,52.20
2023-05-16T05:08:43.224Z,51.80
2023-05-16T05:11:09.880Z,52.20
2023-05-16T05:13:36.688Z,51.70
2023-05-16T05:16:03.633Z,51.80
2023-05-16T05:18:30.403Z,51.80
2023-05-16T05:20:57.176Z,51.70
2023-05-16T05:23:25.215Z,51.80
2023-05-16T05:25:51.982Z,51.70
2023-05-16T05:28:18.616Z,51.10
2023-05-16T05:30:45.288Z,49.90
2023-05-16T05:33:14.088Z,50.30
2023-05-16T05:35:40.788Z,50.60
2023-05-16T05:38:07.445Z,50.80
2023-05-16T05:40:35.412Z,49.10
2023-05-16T05:43:02.093Z,50.30
2023-05-16T05:45:29.031Z,50.50
2023-05-16T05:47:55.981Z,50.70
2023-05-16T05:50:22.720Z,50.40
2023-05-16T05:52:49.436Z,50.40
2023-05-16T05:55:16.112Z,50.40
2023-05-16T05:57:44.154Z,50.40
2023-05-16T06:00:12.267Z,50.90
2023-05-16T06:02:48.855Z,50.90
2023-05-16T06:05:16.193Z,51.20
2023-05-16T06:07:42.852Z,50.60
2023-05-16T06:10:09.919Z,51.10
2023-05-16T06:12:36.705Z,50.30
2023-05-16T06:15:05.538Z,50.60
2023-05-16T06:17:32.219Z,50.90
2023-05-16T06:19:58.884Z,50.50
2023-05-16T06:22:25.544Z,50.30
2023-05-16T06:24:52.208Z,50.40
2023-05-16T06:27:18.857Z,50.10
2023-05-16T06:29:45.523Z,50.10
2023-05-16T06:32:13.648Z,50.60
2023-05-16T06:34:40.379Z,50.40
2023-05-16T06:37:07.082Z,50.90
2023-05-16T06:39:33.766Z,51.00
2023-05-16T06:42:00.482Z,50.90
2023-05-16T06:44:27.189Z,50.40
2023-05-16T06:46:53.952Z,50.50
2023-05-16T06:49:22.080Z,50.50
2023-05-16T06:51:48.790Z,50.10
2023-05-16T06:54:15.487Z,50.70
2023-05-16T06:56:42.181Z,50.30
2023-05-16T06:59:09.135Z,50.30
2023-05-16T07:01:35.872Z,49.90
2023-05-16T07:04:02.905Z,49.90
2023-05-16T07:06:31.080Z,50.10
2023-05-16T07:08:57.808Z,49.50
2023-05-16T07:11:24.593Z,49.50
2023-05-16T07:13:51.377Z,50.10
2023-05-16T07:16:18.186Z,49.60
2023-05-16T07:18:44.992Z,49.40
2023-05-16T07:21:11.701Z,49.60
2023-05-16T07:23:39.753Z,49.60
2023-05-16T07:26:06.488Z,49.30
2023-05-16T07:28:33.207Z,49.70
2023-05-16T07:30:59.885Z,49.60
2023-05-16T07:33:26.686Z,49.80
2023-05-16T07:36:00.865Z,49.80
2023-05-16T07:38:35.061Z,49.70
2023-05-16T07:41:03.114Z,50.00
2023-05-16T07:43:30.354Z,49.90
2023-05-16T07:45:57.299Z,50.10
2023-05-16T07:48:24.088Z,50.10
2023-05-16T07:50:51.004Z,50.10
2023-05-16T07:53:17.741Z,49.70
2023-05-16T07:55:44.604Z,49.30
2023-05-16T07:58:12.762Z,49.10
2023-05-16T08:00:39.483Z,49.40
2023-05-16T08:03:06.540Z,49.20
2023-05-16T08:05:33.457Z,48.80
2023-05-16T08:08:00.287Z,48.40
2023-05-16T08:10:27.077Z,48.10
2023-05-16T08:12:54.167Z,48.00
2023-05-16T08:15:22.257Z,47.70
2023-05-16T08:17:48.990Z,47.70
2023-05-16T08:20:15.922Z,47.70
2023-05-16T08:22:42.661Z,47.60
2023-05-16T08:25:09.770Z,47.60
2023-05-16T08:27:36.504Z,47.10
2023-05-16T08:30:03.653Z,46.30
2023-05-16T08:32:31.811Z,45.60
2023-05-16T08:34:58.851Z,45.40
2023-05-16T08:37:25.572Z,45.00
2023-05-16T08:39:52.300Z,44.80
2023-05-16T08:42:19.250Z,44.40
2023-05-16T08:44:46.017Z,44.20
2023-05-16T08:47:18.092Z,43.70
2023-05-16T08:49:48.494Z,43.70
2023-05-16T08:52:19.555Z,43.20
2023-05-16T08:54:50.392Z,43.30
2023-05-16T08:57:22.469Z,43.40
2023-05-16T08:59:49.556Z,43.20
2023-05-16T09:02:16.827Z,43.20
2023-05-16T09:04:45.098Z,42.90
2023-05-16T09:07:13.154Z,42.40
2023-05-16T09:09:39.914Z,41.40
2023-05-16T09:12:07.566Z,40.70
2023-05-16T09:14:34.530Z,40.80
2023-05-16T09:17:09.671Z,41.20
2023-05-16T09:19:38.891Z,41.70
2023-05-16T09:22:07.232Z,41.30
2023-05-16T09:24:38.656Z,41.00
2023-05-16T09:27:09.409Z,39.40
2023-05-16T09:29:37.122Z,39.80
2023-05-16T09:32:12.160Z,38.60
2023-05-16T09:34:42.971Z,38.80
2023-05-16T09:37:10.476Z,38.10
2023-05-16T09:39:39.434Z,38.70
2023-05-16T09:42:06.838Z,38.30
2023-05-16T09:44:33.653Z,39.60
2023-05-16T09:47:01.014Z,39.30
2023-05-16T09:49:27.863Z,40.30
2023-05-16T09:51:55.419Z,39.60
2023-05-16T09:54:30.541Z,38.90
2023-05-16T09:57:00.233Z,38.50
2023-05-16T09:59:29.290Z,38.70
2023-05-16T10:01:58.430Z,37.90
2023-05-16T10:04:25.355Z,37.20
2023-05-16T10:06:54.874Z,36.70
2023-05-16T10:09:22.911Z,36.90
2023-05-16T10:11:51.614Z,36.50
2023-05-16T10:14:20.724Z,37.10
2023-05-16T10:16:48.834Z,37.00
2023-05-16T10:19:17.045Z,37.70
2023-05-16T10:21:51.175Z,37.00
2023-05-16T10:24:22.232Z,37.00
2023-05-16T10:26:50.088Z,36.90
2023-05-16T10:29:19.494Z,37.20
2023-05-16T10:31:47.719Z,36.50
2023-05-16T10:34:16.229Z,34.90
2023-05-16T10:36:44.153Z,34.70
2023-05-16T10:39:11.687Z,34.20
2023-05-16T10:41:38.684Z,34.80
2023-05-16T10:44:13.779Z,35.90
2023-05-16T10:46:42.162Z,34.90
2023-05-16T10:49:20.699Z,34.20
2023-05-16T10:52:02.448Z,34.50
2023-05-16T10:54:35.379Z,34.20
2023-05-16T10:57:05.787Z,34.10
2023-05-16T10:59:40.747Z,33.60
2023-05-16T11:02:22.514Z,34.10
2023-05-16T11:04:50.264Z,35.00
2023-05-16T11:07:18.994Z,35.30
2023-05-16T11:09:46.078Z,35.10
2023-05-16T11:12:13.389Z,32.90
2023-05-16T11:14:41.201Z,35.10
2023-05-16T11:17:12.188Z,34.50
2023-05-16T11:19:44.005Z,34.10
2023-05-16T11:22:26.205Z,33.10
2023-05-16T11:24:58.928Z,32.70
2023-05-16T11:27:29.458Z,31.10
2023-05-16T11:30:02.620Z,32.00
2023-05-16T11:32:34.023Z,32.70
2023-05-16T11:35:01.428Z,32.40
2023-05-16T11:37:28.234Z,32.50
2023-05-16T11:39:59.221Z,31.10
2023-05-16T11:42:29.938Z,30.70
2023-05-16T11:45:04.985Z,29.80
2023-05-16T11:47:33.372Z,30.80
2023-05-16T11:50:00.264Z,30.20
2023-05-16T11:52:27.098Z,29.90
2023-05-16T11:54:53.852Z,31.00
2023-05-16T11:57:21.781Z,31.90
2023-05-16T11:59:48.521Z,31.20
2023-05-16T12:02:15.252Z,30.00
2023-05-16T12:04:46.518Z,29.40
2023-05-16T12:07:13.358Z,29.50
2023-05-16T12:09:40.039Z,29.60
2023-05-16T12:12:08.218Z,28.80
2023-05-16T12:14:35.196Z,28.10
2023-05-16T12:17:02.255Z,29.70
2023-05-16T12:19:29.128Z,30.00
2023-05-16T12:21:57.478Z,28.90
2023-05-16T12:24:30.352Z,29.40
2023-05-16T12:26:57.485Z,26.50
2023-05-16T12:29:25.348Z,26.80
2023-05-16T12:31:53.562Z,26.90
2023-05-16T12:34:20.691Z,29.20
2023-05-16T12:36:52.121Z,27.60
2023-05-16T12:39:20.457Z,27.90
2023-05-16T12:41:47.333Z,27.30
2023-05-16T12:44:15.448Z,26.00
2023-05-16T12:46:43.185Z,26.20
2023-05-16T12:49:10.191Z,26.80
2023-05-16T12:51:36.988Z,26.30
2023-05-16T12:54:10.865Z,27.10
2023-05-16T12:56:39.443Z,27.00
2023-05-16T12:59:06.217Z,26.80
2023-05-16T13:01:33.044Z,27.20
2023-05-16T13:03:59.952Z,25.60
2023-05-16T13:06:26.981Z,27.00
2023-05-16T13:08:53.820Z,26.40
2023-05-16T13:11:20.770Z,26.50
2023-05-16T13:13:48.856Z,26.80
2023-05-16T13:16:15.679Z,27.80
2023-05-16T13:18:42.474Z,28.10
2023-05-16T13:21:09.280Z,27.80
2023-05-16T13:23:36.095Z,27.60
2023-05-16T13:26:02.933Z,27.00
2023-05-16T13:28:29.681Z,24.90
2023-05-16T13:30:59.624Z,25.40
2023-05-16T13:33:27.479Z,25.40
2023-05-16T13:35:54.343Z,25.40
2023-05-16T13:38:21.136Z,26.10
2023-05-16T13:40:47.950Z,26.30
2023-05-16T13:43:14.830Z,24.50
2023-05-16T13:45:41.633Z,25.50
2023-05-16T13:48:09.839Z,25.10
2023-05-16T13:53:10.312Z,24.20
2023-05-16T13:55:37.412Z,25.50
2023-05-16T13:58:04.170Z,24.40
2023-05-16T14:00:43.382Z,25.30
2023-05-16T14:03:13.226Z,25.60
2023-05-16T14:05:40.286Z,23.80
2023-05-16T14:08:07.053Z,25.40
2023-05-16T14:10:33.826Z,24.60
2023-05-16T14:13:00.617Z,25.20
2023-05-16T14:15:27.773Z,25.40
2023-05-16T14:17:54.688Z,25.70
2023-05-16T14:20:23.108Z,25.40
2023-05-16T14:22:49.949Z,26.00
2023-05-16T14:25:16.792Z,25.80
2023-05-16T14:27:43.490Z,25.70
2023-05-16T14:30:11.008Z,25.80
2023-05-16T14:32:37.826Z,26.80
2023-05-16T14:35:05.157Z,26.20
2023-05-16T14:37:33.259Z,24.30
2023-05-16T14:39:59.997Z,23.60
2023-05-16T14:42:26.708Z,23.60
2023-05-16T14:44:53.479Z,23.20
2023-05-16T14:47:20.192Z,23.20
2023-05-16T14:49:46.895Z,23.90
2023-05-16T14:52:13.963Z,23.50
2023-05-16T14:54:41.997Z,22.90
2023-05-16T14:57:09.136Z,24.10
2023-05-16T14:59:35.868Z,22.90
2023-05-16T15:02:02.703Z,23.70
2023-05-16T15:04:29.649Z,24.70
2023-05-16T15:06:56.499Z,24.90
2023-05-16T15:09:23.219Z,24.90
2023-05-16T15:11:51.364Z,24.00
2023-05-16T15:14:18.084Z,24.90
2023-05-16T15:16:44.929Z,26.20
2023-05-16T15:19:11.890Z,25.50
2023-05-16T15:21:38.921Z,26.00
2023-05-16T15:24:06.291Z,26.50
2023-05-16T15:26:33.036Z,25.50
2023-05-16T15:29:01.148Z,25.10
2023-05-16T15:31:27.882Z,25.20
2023-05-16T15:33:54.596Z,25.50
2023-05-16T15:36:21.355Z,26.40
2023-05-16T15:38:48.093Z,25.80
2023-05-16T15:41:31.450Z,25.40
2023-05-16T15:44:02.862Z,26.70
2023-05-16T15:46:29.673Z,26.20
2023-05-16T15:48:56.792Z,25.60
2023-05-16T15:51:23.491Z,24.50
2023-05-16T15:53:50.255Z,25.30
2023-05-16T15:56:16.976Z,25.40
2023-05-16T15:58:43.689Z,26.20
2023-05-16T16:01:11.814Z,24.00
2023-05-16T16:03:38.681Z,23.30
2023-05-16T16:06:05.645Z,24.00
2023-05-16T16:08:32.501Z,23.50
2023-05-16T16:10:59.191Z,22.40
2023-05-16T16:13:25.882Z,21.60
2023-05-16T16:15:52.647Z,21.70
2023-05-16T16:18:20.969Z,23.30
2023-05-16T16:20:47.683Z,22.90
2023-05-16T16:23:14.472Z,22.80
2023-05-16T16:25:41.194Z,22.40
2023-05-16T16:28:07.917Z,22.70
2023-05-16T16:30:34.637Z,23.60
2023-05-16T16:33:01.563Z,22.90
2023-05-16T16:35:30.051Z,22.20
2023-05-16T16:38:06.086Z,23.00
2023-05-16T16:40:34.000Z,22.50
2023-05-16T16:43:00.751Z,23.00
2023-05-16T16:45:27.737Z,23.30
2023-05-16T16:47:54.953Z,23.10
2023-05-16T16:50:21.895Z,23.00
2023-05-16T16:52:49.961Z,23.30
2023-05-16T16:55:16.785Z,23.90
2023-05-16T16:57:43.480Z,24.00
2023-05-16T17:00:11.547Z,24.30
2023-05-16T17:02:38.658Z,24.00
2023-05-16T17:05:06.528Z,24.20
2023-05-16T17:07:34.014Z,24.30
2023-05-16T17:10:02.172Z,24.10
2023-05-16T17:12:28.982Z,24.10
2023-05-16T17:14:55.847Z,24.00
2023-05-16T17:17:22.683Z,24.70
2023-05-16T17:19:49.434Z,24.50
2023-05-16T17:22:16.143Z,24.70
2023-05-16T17:24:42.838Z,25.40
2023-05-16T17:27:11.984Z,25.00
2023-05-16T17:29:38.663Z,25.20
2023-05-16T17:32:06.047Z,25.30
2023-05-16T17:34:32.789Z,25.00
2023-05-16T17:36:59.651Z,25.40
2023-05-16T17:39:26.397Z,25.30
2023-05-16T17:41:53.167Z,25.70
2023-05-16T17:44:21.216Z,25.80
2023-05-16T17:46:47.919Z,26.40
2023-05-16T17:49:14.793Z,26.10
2023-05-16T17:51:45.782Z,26.20
2023-05-16T17:54:12.591Z,26.50
2023-05-16T17:56:41.229Z,26.50
2023-05-16T17:59:07.984Z,26.40
2023-05-16T18:01:36.068Z,26.90
2023-05-16T18:04:02.918Z,27.00
2023-05-16T18:06:29.721Z,27.10
2023-05-16T18:08:56.403Z,27.30
2023-05-16T18:11:23.257Z,27.20
2023-05-16T18:13:50.088Z,27.50
2023-05-16T18:16:17.157Z,27.80
2023-05-16T18:18:45.409Z,27.70
2023-05-16T18:21:12.195Z,27.70
2023-05-16T18:23:38.919Z,28.30
2023-05-16T18:26:05.648Z,28.40
2023-05-16T18:28:32.394Z,28.30
2023-05-16T18:30:59.479Z,28.40
2023-05-16T18:33:29.514Z,28.60
2023-05-16T18:36:02.629Z,28.80
2023-05-16T18:38:33.020Z,28.90
2023-05-16T18:41:00.533Z,28.60
2023-05-16T18:43:27.263Z,28.00
2023-05-16T18:45:57.502Z,27.90
2023-05-16T18:48:24.316Z,27.80
2023-05-16T18:50:51.277Z,28.20
2023-05-16T18:53:19.343Z,28.10
2023-05-16T18:55:46.171Z,28.30
2023-05-16T18:58:12.879Z,28.40
2023-05-16T19:00:39.728Z,28.30
2023-05-16T19:03:06.530Z,28.60
2023-05-16T19:05:33.665Z,28.70
2023-05-16T19:08:00.744Z,28.80
2023-05-16T19:10:28.914Z,29.00
2023-05-16T19:12:55.733Z,29.60
2023-05-16T19:15:22.568Z,29.10
2023-05-16T19:17:49.438Z,29.20
2023-05-16T19:20:16.410Z,29.10
2023-05-16T19:22:43.069Z,29.10
2023-05-16T19:25:10.181Z,29.10
2023-05-16T19:27:38.177Z,29.30
2023-05-16T19:30:06.226Z,29.30
2023-05-16T19:32:33.022Z,29.60
2023-05-16T19:34:59.849Z,29.60
2023-05-16T19:37:26.741Z,29.60
2023-05-16T19:39:53.465Z,29.70
2023-05-16T19:42:20.163Z,29.80
2023-05-16T19:44:48.178Z,29.90
2023-05-16T19:47:14.963Z,30.00
2023-05-16T19:49:41.696Z,30.00
2023-05-16T19:52:10.058Z,30.00
2023-05-16T19:54:36.768Z,30.00
2023-05-16T19:57:04.625Z,30.00
2023-05-16T19:59:33.809Z,30.00
2023-05-16T20:02:01.846Z,30.10
2023-05-16T20:04:28.767Z,30.20
2023-05-16T20:06:55.596Z,30.20
2023-05-16T20:09:22.326Z,30.00
2023-05-16T20:11:49.202Z,30.10
2023-05-16T20:14:15.921Z,30.20
2023-05-16T20:16:42.614Z,30.30
2023-05-16T20:19:10.857Z,30.10
2023-05-16T20:21:37.633Z,30.50
2023-05-16T20:24:04.413Z,30.80
2023-05-16T20:26:31.091Z,30.60
2023-05-16T20:28:57.762Z,30.40
2023-05-16T20:31:24.534Z,30.50
2023-05-16T20:33:51.309Z,30.80
2023-05-16T20:36:19.448Z,30.60
2023-05-16T20:38:46.155Z,30.90
2023-05-16T20:41:12.876Z,30.80
2023-05-16T20:43:39.609Z,31.10
2023-05-16T20:46:06.506Z,31.10
2023-05-16T20:48:33.267Z,31.30
2023-05-16T20:51:00.037Z,31.50
2023-05-16T20:53:28.086Z,31.50
2023-05-16T20:55:54.879Z,31.80
2023-05-16T20:58:21.862Z,32.20
2023-05-16T21:00:48.544Z,32.30
2023-05-16T21:03:15.234Z,32.50
2023-05-16T21:05:42.102Z,32.40
2023-05-16T21:08:08.875Z,32.70
2023-05-16T21:10:37.007Z,33.20
2023-05-16T21:13:03.723Z,32.90
2023-05-16T21:15:30.508Z,33.20
2023-05-16T21:17:57.479Z,33.20
2023-05-16T21:20:24.265Z,34.30
2023-05-16T21:22:50.943Z,34.30
2023-05-16T21:25:17.644Z,34.80
2023-05-16T21:27:45.688Z,34.60
2023-05-16T21:30:13.544Z,35.00
2023-05-16T21:32:40.288Z,34.70
2023-05-16T21:35:07.730Z,35.30
2023-05-16T21:37:34.511Z,35.00
2023-05-16T21:40:01.245Z,34.90
2023-05-16T21:42:27.923Z,35.40
2023-05-16T21:44:55.984Z,35.50
2023-05-16T21:47:22.763Z,36.00
2023-05-16T21:49:49.486Z,35.40
2023-05-16T21:52:16.187Z,35.10
2023-05-16T21:54:42.891Z,35.00
2023-05-16T21:57:09.582Z,34.90
2023-05-16T21:59:36.289Z,35.20
2023-05-16T22:02:04.781Z,35.20
2023-05-16T22:04:31.582Z,35.20
2023-05-16T22:06:58.340Z,34.10
2023-05-16T22:09:25.101Z,33.50
2023-05-16T22:11:51.781Z,34.00
2023-05-16T22:14:18.493Z,33.70
2023-05-16T22:16:45.317Z,34.10
2023-05-16T22:19:13.420Z,33.50
2023-05-16T22:21:40.120Z,34.00
2023-05-16T22:24:07.379Z,33.60
2023-05-16T22:26:34.156Z,33.40
2023-05-16T22:29:00.916Z,33.70
2023-05-16T22:31:27.751Z,33.70
2023-05-16T22:33:54.552Z,33.50
2023-05-16T22:36:22.609Z,33.40
2023-05-16T22:38:49.297Z,33.70
2023-05-16T22:41:16.121Z,33.90
2023-05-16T22:43:42.805Z,34.00
2023-05-16T22:46:09.524Z,34.00
2023-05-16T22:48:36.309Z,34.00
2023-05-16T22:51:03.034Z,33.70
2023-05-16T22:53:31.053Z,33.80
2023-05-16T22:55:57.952Z,33.90
2023-05-16T22:58:24.678Z,34.20
2023-05-16T23:00:53.886Z,33.80
2023-05-16T23:03:20.653Z,34.00
2023-05-16T23:05:47.425Z,34.30
2023-05-16T23:08:14.139Z,34.40
2023-05-16T23:10:42.604Z,34.60
2023-05-16T23:13:09.417Z,34.90
2023-05-16T23:15:36.162Z,34.30
2023-05-16T23:18:02.936Z,34.10
2023-05-16T23:20:29.746Z,34.90
2023-05-16T23:22:56.429Z,35.60
2023-05-16T23:25:23.523Z,35.30
2023-05-16T23:27:51.550Z,35.00
2023-05-16T23:30:18.366Z,35.50
2023-05-16T23:32:45.198Z,35.00
2023-05-16T23:35:11.928Z,35.20
2023-05-16T23:37:38.652Z,34.80
2023-05-16T23:40:06.802Z,34.90
2023-05-16T23:42:33.491Z,35.70
2023-05-16T23:45:01.568Z,36.10
2023-05-16T23:47:28.344Z,35.70
2023-05-16T23:49:55.077Z,35.90
2023-05-16T23:52:21.791Z,36.00
2023-05-16T23:54:48.504Z,36.30
2023-05-16T23:57:15.193Z,36.10
2023-05-16T23:59:41.979Z,35.60
